createdAt,value
2022-10-30T00:00:26.582Z,86.5
2022-10-30T00:01:42.881Z,86.8
2022-10-30T00:02:58.179Z,87.6
2022-10-30T00:04:14.483Z,88
2022-10-30T00:05:30.764Z,88.3
2022-10-30T00:06:47.067Z,88.3
2022-10-30T00:08:03.366Z,88.3
2022-10-30T00:09:19.648Z,88
2022-10-30T00:10:35.948Z,88
2022-10-30T00:11:52.235Z,88.2
2022-10-30T00:13:08.518Z,88.2
2022-10-30T00:14:24.829Z,88.2
2022-10-30T00:15:41.108Z,88
2022-10-30T00:16:57.399Z,87.9
2022-10-30T00:18:13.695Z,87.8
2022-10-30T00:19:29.002Z,87.7
2022-10-30T00:20:45.294Z,87.5
2022-10-30T00:23:17.882Z,87.3
2022-10-30T00:24:34.178Z,87.1
2022-10-30T00:25:50.464Z,87.1
2022-10-30T00:27:06.755Z,87.1
2022-10-30T00:28:23.056Z,87.3
2022-10-30T00:29:39.356Z,87.4
2022-10-30T00:30:55.633Z,87.5
2022-10-30T00:32:11.941Z,87.6
2022-10-30T00:33:28.216Z,87.5
2022-10-30T00:34:44.525Z,87.7
2022-10-30T00:35:59.825Z,87.7
2022-10-30T00:37:16.118Z,87.8
2022-10-30T00:38:32.417Z,88
2022-10-30T00:39:48.710Z,88
2022-10-30T00:41:04.992Z,88.3
2022-10-30T00:42:21.286Z,88.3
2022-10-30T00:43:37.587Z,88.5
2022-10-30T00:44:53.865Z,88.3
2022-10-30T00:46:10.160Z,88
2022-10-30T00:47:26.467Z,87.7
2022-10-30T00:48:42.760Z,87.4
2022-10-30T00:49:59.034Z,87.1
2022-10-30T00:51:15.335Z,86.9
2022-10-30T00:52:30.637Z,86.7
2022-10-30T00:53:46.928Z,86.5
2022-10-30T00:55:03.231Z,86.2
2022-10-30T00:56:19.513Z,86.1
2022-10-30T00:57:35.822Z,85.9
2022-10-30T00:58:52.103Z,85.8
2022-10-30T01:00:08.394Z,85.8
2022-10-30T01:01:24.683Z,85.7
2022-10-30T01:02:40.984Z,85.7
2022-10-30T01:03:57.275Z,85.5
2022-10-30T01:05:13.557Z,85.4
2022-10-30T01:06:29.848Z,85.4
2022-10-30T01:07:46.155Z,85.4
2022-10-30T01:09:01.444Z,85.4
2022-10-30T01:10:17.746Z,85.4
2022-10-30T01:11:34.043Z,85.3
2022-10-30T01:12:50.342Z,85.2
2022-10-30T01:14:06.619Z,85.1
2022-10-30T01:15:22.929Z,85.1
2022-10-30T01:16:39.209Z,85
2022-10-30T01:17:55.495Z,85
2022-10-30T01:19:11.789Z,84.9
2022-10-30T01:20:28.097Z,84.9
2022-10-30T01:21:44.371Z,84.9
2022-10-30T01:23:00.674Z,84.9
2022-10-30T01:24:16.967Z,84.8
2022-10-30T01:25:32.275Z,84.9
2022-10-30T01:26:48.570Z,84.8
2022-10-30T01:28:04.865Z,84.9
2022-10-30T01:29:21.148Z,84.9
2022-10-30T01:30:37.436Z,85
2022-10-30T01:31:53.743Z,85
2022-10-30T01:33:10.028Z,85.1
2022-10-30T01:34:26.328Z,85
2022-10-30T01:35:42.612Z,85.2
2022-10-30T01:36:58.906Z,85.3
2022-10-30T01:38:15.207Z,85.5
2022-10-30T01:40:47.787Z,85.8
2022-10-30T01:42:03.087Z,85.9
2022-10-30T01:43:19.390Z,86.1
2022-10-30T01:44:35.686Z,86.1
2022-10-30T01:45:51.973Z,86.3
2022-10-30T01:47:08.267Z,86.3
2022-10-30T01:48:24.562Z,86.3
2022-10-30T01:49:40.845Z,86.3
2022-10-30T01:50:57.142Z,86.3
2022-10-30T01:52:13.444Z,86.4
2022-10-30T01:53:29.724Z,86.3
2022-10-30T01:54:46.030Z,86.3
2022-10-30T01:56:02.317Z,86.2
2022-10-30T01:57:18.609Z,86.2
2022-10-30T01:58:33.910Z,86.1
2022-10-30T01:59:50.217Z,85.9
2022-10-30T02:01:06.493Z,85.7
2022-10-30T02:02:22.789Z,85.4
2022-10-30T02:03:39.082Z,85.1
2022-10-30T02:04:55.370Z,84.8
2022-10-30T02:06:11.666Z,84.5
2022-10-30T02:07:27.967Z,84.5
2022-10-30T02:08:44.258Z,84.2
2022-10-30T02:10:00.544Z,84.1
2022-10-30T02:12:33.135Z,84
2022-10-30T02:13:49.425Z,84
2022-10-30T02:15:04.723Z,84
2022-10-30T02:16:21.026Z,84.3
2022-10-30T02:17:37.310Z,84.2
2022-10-30T02:18:53.609Z,84.4
2022-10-30T02:20:09.915Z,84.6
2022-10-30T02:21:26.187Z,84.8
2022-10-30T02:23:58.791Z,85.2
2022-10-30T02:25:15.081Z,85.3
2022-10-30T02:26:31.376Z,85.4
2022-10-30T02:27:47.658Z,85.6
2022-10-30T02:29:03.953Z,85.8
2022-10-30T02:30:20.235Z,85.8
2022-10-30T02:31:35.556Z,85.9
2022-10-30T02:32:51.848Z,86.1
2022-10-30T02:34:08.138Z,86.2
2022-10-30T02:35:24.438Z,86.2
2022-10-30T02:36:40.718Z,86.4
2022-10-30T02:37:57.023Z,86.6
2022-10-30T02:39:13.302Z,86.6
2022-10-30T02:40:29.594Z,86.6
2022-10-30T02:41:45.900Z,86.7
2022-10-30T02:43:02.196Z,86.9
2022-10-30T02:44:18.486Z,86.8
2022-10-30T02:45:34.766Z,86.8
2022-10-30T02:46:51.068Z,86.8
2022-10-30T02:48:06.367Z,86.7
2022-10-30T02:49:22.662Z,86.8
2022-10-30T02:50:38.960Z,86.8
2022-10-30T02:51:55.257Z,87
2022-10-30T02:53:11.536Z,86.9
2022-10-30T02:54:27.829Z,86.8
2022-10-30T02:55:44.121Z,86.9
2022-10-30T02:57:00.413Z,87
2022-10-30T02:58:16.707Z,87.1
2022-10-30T02:59:33.004Z,87.1
2022-10-30T03:00:49.292Z,87.1
2022-10-30T03:02:05.587Z,87.1
2022-10-30T03:03:21.875Z,87.1
2022-10-30T03:04:37.203Z,87.3
2022-10-30T03:05:53.496Z,87.3
2022-10-30T03:07:09.773Z,87.4
2022-10-30T03:08:26.069Z,87.4
2022-10-30T03:09:42.358Z,87.4
2022-10-30T03:10:58.655Z,87.5
2022-10-30T03:12:14.946Z,87.5
2022-10-30T03:13:31.248Z,87.5
2022-10-30T03:14:47.528Z,87.5
2022-10-30T03:16:03.818Z,87.5
2022-10-30T03:17:20.123Z,87.6
2022-10-30T03:18:36.411Z,87.7
2022-10-30T03:19:52.700Z,87.8
2022-10-30T03:21:09.124Z,87.9
2022-10-30T03:22:25.403Z,87.9
2022-10-30T03:23:41.704Z,88
2022-10-30T03:24:58.005Z,87.9
2022-10-30T03:26:14.289Z,88
2022-10-30T03:27:30.575Z,88.1
2022-10-30T03:28:46.864Z,88
2022-10-30T03:30:03.161Z,88.1
2022-10-30T03:31:19.448Z,87.9
2022-10-30T03:32:35.749Z,88
2022-10-30T03:33:52.048Z,88.2
2022-10-30T03:35:08.325Z,88.2
2022-10-30T03:36:24.637Z,88.1
2022-10-30T03:37:39.947Z,88.1
2022-10-30T03:38:56.233Z,88.2
2022-10-30T03:40:12.519Z,88.2
2022-10-30T03:41:28.818Z,88.4
2022-10-30T03:42:45.111Z,88.4
2022-10-30T03:44:01.405Z,88.3
2022-10-30T03:45:16.706Z,88.4
2022-10-30T03:46:33.008Z,88.5
2022-10-30T03:47:49.307Z,88.5
2022-10-30T03:49:05.583Z,88.5
2022-10-30T03:50:21.887Z,88.5
2022-10-30T03:51:38.179Z,88.4
2022-10-30T03:52:54.477Z,88.3
2022-10-30T03:54:10.759Z,88.3
2022-10-30T03:55:27.056Z,88.3
2022-10-30T03:56:43.360Z,88.3
2022-10-30T03:57:59.632Z,88.2
2022-10-30T03:59:15.939Z,88.2
2022-10-30T04:00:32.228Z,88.2
2022-10-30T04:01:47.539Z,88.2
2022-10-30T04:03:03.829Z,88.2
2022-10-30T04:04:20.130Z,88
2022-10-30T04:05:36.409Z,87.9
2022-10-30T04:06:52.703Z,87.8
2022-10-30T04:08:09.008Z,87.7
2022-10-30T04:09:25.292Z,87.7
2022-10-30T04:10:41.593Z,87.8
2022-10-30T04:11:57.882Z,87.7
2022-10-30T04:13:14.172Z,87.7
2022-10-30T04:14:30.472Z,87.8
2022-10-30T04:15:46.764Z,87.8
2022-10-30T04:17:03.043Z,87.8
2022-10-30T04:18:18.346Z,87.7
2022-10-30T04:19:34.645Z,87.7
2022-10-30T04:20:50.940Z,87.7
2022-10-30T04:22:07.236Z,87.7
2022-10-30T04:23:23.525Z,87.7
2022-10-30T04:24:39.811Z,87.7
2022-10-30T04:25:56.107Z,87.8
2022-10-30T04:27:12.403Z,87.8
2022-10-30T04:28:28.701Z,87.9
2022-10-30T04:29:44.983Z,88
2022-10-30T04:31:01.288Z,88
2022-10-30T04:32:17.572Z,88.1
2022-10-30T04:33:33.875Z,88
2022-10-30T04:34:50.276Z,88.2
2022-10-30T04:36:06.575Z,88.3
2022-10-30T04:37:22.867Z,88.4
2022-10-30T04:38:39.156Z,88.4
2022-10-30T04:39:55.461Z,88.4
2022-10-30T04:41:11.739Z,88.4
2022-10-30T04:42:28.035Z,88.3
2022-10-30T04:43:44.320Z,88.4
2022-10-30T04:45:00.625Z,88.4
2022-10-30T04:46:16.913Z,88.3
2022-10-30T04:47:33.211Z,88.4
2022-10-30T04:48:49.500Z,88.3
2022-10-30T04:50:05.787Z,88.3
2022-10-30T04:51:22.195Z,88.4
2022-10-30T04:52:38.496Z,88.4
2022-10-30T04:53:54.791Z,88.4
2022-10-30T04:55:11.081Z,88.4
2022-10-30T04:56:27.366Z,88.7
2022-10-30T04:57:43.668Z,88.6
2022-10-30T04:58:59.956Z,88.5
2022-10-30T05:00:16.000Z,88.6
2022-10-30T05:01:32.543Z,88.6
2022-10-30T05:02:48.847Z,89
2022-10-30T05:04:05.133Z,89.2
2022-10-30T05:05:21.415Z,89.3
2022-10-30T05:06:37.725Z,89.4
2022-10-30T05:07:53.026Z,89.3
2022-10-30T05:09:09.326Z,89.1
2022-10-30T05:10:25.616Z,88.9
2022-10-30T05:11:41.896Z,88.9
2022-10-30T05:12:58.195Z,88.7
2022-10-30T05:14:14.486Z,88.7
2022-10-30T05:15:30.785Z,88.7
2022-10-30T05:16:47.074Z,88.7
2022-10-30T05:18:03.355Z,88.7
2022-10-30T05:19:19.665Z,88.8
2022-10-30T05:20:35.948Z,89
2022-10-30T05:21:52.237Z,89
2022-10-30T05:23:08.526Z,89.3
2022-10-30T05:24:23.834Z,89.5
2022-10-30T05:25:40.146Z,89.6
2022-10-30T05:26:56.436Z,89.7
2022-10-30T05:28:12.717Z,89.9
2022-10-30T05:29:29.019Z,89.7
2022-10-30T05:30:45.312Z,89.8
2022-10-30T05:32:01.610Z,90.2
2022-10-30T05:33:17.901Z,90.3
2022-10-30T05:34:34.193Z,90.1
2022-10-30T05:35:50.423Z,90.3
2022-10-30T05:37:06.674Z,90.5
2022-10-30T05:38:22.902Z,90.5
2022-10-30T05:39:39.144Z,90.7
2022-10-30T05:40:54.413Z,90.7
2022-10-30T05:42:10.655Z,90.9
2022-10-30T05:43:26.890Z,90.9
2022-10-30T05:44:43.119Z,91.1
2022-10-30T05:45:59.371Z,91.2
2022-10-30T05:47:15.609Z,91.2
2022-10-30T05:48:31.843Z,91.3
2022-10-30T05:49:48.073Z,91.3
2022-10-30T05:51:04.325Z,91.5
2022-10-30T05:52:20.550Z,91.7
2022-10-30T05:53:36.797Z,91.7
2022-10-30T05:54:53.034Z,91.9
2022-10-30T05:56:09.263Z,92.1
2022-10-30T05:57:24.521Z,92.1
2022-10-30T05:58:40.759Z,92
2022-10-30T05:59:56.997Z,91.9
2022-10-30T06:01:13.245Z,91.9
2022-10-30T06:02:29.482Z,91.9
2022-10-30T06:03:45.717Z,91.9
2022-10-30T06:05:01.949Z,91.9
2022-10-30T06:06:18.193Z,91.9
2022-10-30T06:07:34.425Z,91.8
2022-10-30T06:08:50.671Z,91.8
2022-10-30T06:10:06.905Z,91.8
2022-10-30T06:11:23.151Z,91.6
2022-10-30T06:12:39.387Z,91.6
2022-10-30T06:13:54.643Z,91.6
2022-10-30T06:15:10.875Z,91.5
2022-10-30T06:16:27.115Z,91.7
2022-10-30T06:17:43.359Z,91.6
2022-10-30T06:18:59.590Z,91.5
2022-10-30T06:20:15.827Z,91.4
2022-10-30T06:21:32.075Z,91.3
2022-10-30T06:22:48.308Z,91.3
2022-10-30T06:24:04.547Z,91.4
2022-10-30T06:25:20.791Z,91.2
2022-10-30T06:26:37.020Z,91.1
2022-10-30T06:27:53.272Z,90.9
2022-10-30T06:29:09.510Z,90.9
2022-10-30T06:30:24.768Z,91
2022-10-30T06:31:40.994Z,90.8
2022-10-30T06:32:57.236Z,90.9
2022-10-30T06:34:13.480Z,91
2022-10-30T06:35:29.725Z,90.8
2022-10-30T06:36:45.958Z,90.7
2022-10-30T06:38:02.195Z,90.5
2022-10-30T06:39:18.429Z,90.5
2022-10-30T06:40:34.676Z,90.6
2022-10-30T06:41:50.912Z,90.7
2022-10-30T06:43:07.143Z,90.8
2022-10-30T06:45:39.618Z,90.6
2022-10-30T06:46:54.888Z,90.6
2022-10-30T06:48:11.117Z,90.8
2022-10-30T06:49:27.348Z,90.6
2022-10-30T06:50:43.602Z,90.7
2022-10-30T06:51:59.843Z,90.7
2022-10-30T06:53:16.065Z,90.7
2022-10-30T06:54:32.316Z,90.7
2022-10-30T06:55:48.560Z,90.8
2022-10-30T06:57:04.797Z,90.7
2022-10-30T06:58:21.021Z,90.6
2022-10-30T06:59:37.274Z,90.7
2022-10-30T07:00:53.513Z,90.6
2022-10-30T07:02:09.742Z,90.1
2022-10-30T07:03:25.003Z,90
2022-10-30T07:04:41.245Z,89.9
2022-10-30T07:05:57.478Z,89.6
2022-10-30T07:07:13.716Z,89.4
2022-10-30T07:08:29.962Z,89
2022-10-30T07:09:46.202Z,88.7
2022-10-30T07:11:02.438Z,88.4
2022-10-30T07:12:18.675Z,88.3
2022-10-30T07:13:34.903Z,88.1
2022-10-30T07:14:51.148Z,87.9
2022-10-30T07:16:07.381Z,88.1
2022-10-30T07:17:23.629Z,88.1
2022-10-30T07:18:39.873Z,88
2022-10-30T07:19:55.124Z,88
2022-10-30T07:21:11.363Z,88
2022-10-30T07:22:27.586Z,87.1
2022-10-30T07:23:43.827Z,87
2022-10-30T07:25:00.079Z,87.1
2022-10-30T07:26:16.302Z,86.8
2022-10-30T07:27:32.560Z,86.7
2022-10-30T07:28:48.789Z,86.5
2022-10-30T07:30:05.023Z,86.5
2022-10-30T07:31:21.256Z,86.8
2022-10-30T07:32:37.511Z,87
2022-10-30T07:33:53.744Z,85.9
2022-10-30T07:35:09.973Z,86.2
2022-10-30T07:36:26.349Z,86.1
2022-10-30T07:37:42.574Z,86.2
2022-10-30T07:38:58.816Z,85.9
2022-10-30T07:40:15.063Z,84.6
2022-10-30T07:41:31.304Z,84.3
2022-10-30T07:42:47.539Z,84.4
2022-10-30T07:44:03.772Z,84.5
2022-10-30T07:45:20.014Z,83.8
2022-10-30T07:46:36.258Z,83.6
2022-10-30T07:47:52.488Z,84.1
2022-10-30T07:49:08.722Z,83.8
2022-10-30T07:50:24.956Z,83
2022-10-30T07:51:41.209Z,83.2
2022-10-30T07:52:56.458Z,82.6
2022-10-30T07:54:12.703Z,82.3
2022-10-30T07:55:28.946Z,81.9
2022-10-30T07:56:45.182Z,81.3
2022-10-30T07:58:01.405Z,80.7
2022-10-30T07:59:17.644Z,80
2022-10-30T08:00:33.892Z,79.9
2022-10-30T08:01:49.149Z,80.5
2022-10-30T08:03:05.399Z,80.4
2022-10-30T08:04:21.626Z,79
2022-10-30T08:05:37.857Z,79
2022-10-30T08:06:54.103Z,78.4
2022-10-30T08:08:10.351Z,77.7
2022-10-30T08:09:26.583Z,77
2022-10-30T08:10:42.824Z,77.3
2022-10-30T08:11:59.054Z,76.7
2022-10-30T08:13:15.292Z,76.6
2022-10-30T08:14:31.525Z,76.3
2022-10-30T08:15:47.768Z,76.1
2022-10-30T08:17:04.016Z,76.6
2022-10-30T08:18:19.264Z,77.1
2022-10-30T08:19:35.515Z,76.8
2022-10-30T08:20:51.739Z,76.3
2022-10-30T08:22:07.975Z,77.3
2022-10-30T08:23:24.215Z,76.2
2022-10-30T08:24:40.450Z,75.7
2022-10-30T08:25:56.696Z,76.2
2022-10-30T08:27:12.946Z,75.4
2022-10-30T08:28:29.175Z,74.7
2022-10-30T08:29:45.407Z,75.8
2022-10-30T08:31:01.643Z,75.4
2022-10-30T08:32:17.883Z,76.2
2022-10-30T08:33:34.132Z,75.1
2022-10-30T08:34:49.383Z,74.5
2022-10-30T08:36:05.621Z,75
2022-10-30T08:37:21.856Z,75.8
2022-10-30T08:38:38.100Z,76.2
2022-10-30T08:39:54.329Z,74.1
2022-10-30T08:41:10.569Z,74.1
2022-10-30T08:42:26.820Z,74
2022-10-30T08:43:43.047Z,73
2022-10-30T08:44:59.283Z,72.9
2022-10-30T08:46:15.524Z,73.2
2022-10-30T08:47:31.776Z,72.9
2022-10-30T08:48:48.013Z,71.3
2022-10-30T08:50:04.235Z,69.8
2022-10-30T08:51:19.494Z,67.6
2022-10-30T08:52:35.729Z,68.7
2022-10-30T08:53:51.977Z,69.6
2022-10-30T08:55:08.214Z,69.6
2022-10-30T08:56:24.448Z,71
2022-10-30T08:57:40.690Z,70.6
2022-10-30T08:58:56.925Z,71.4
2022-10-30T09:00:13.180Z,72
2022-10-30T09:01:29.408Z,72.4
2022-10-30T09:02:45.646Z,71.5
2022-10-30T09:04:01.885Z,70.6
2022-10-30T09:05:18.125Z,68.2
2022-10-30T09:06:34.355Z,68.8
2022-10-30T09:07:49.616Z,67
2022-10-30T09:09:05.855Z,65.4
2022-10-30T09:10:22.090Z,62.9
2022-10-30T09:11:38.336Z,61.5
2022-10-30T09:12:54.568Z,60.2
2022-10-30T09:14:10.807Z,58.7
2022-10-30T09:15:27.055Z,58
2022-10-30T09:16:43.286Z,57.2
2022-10-30T09:17:59.531Z,56.7
2022-10-30T09:19:15.753Z,56.1
2022-10-30T09:20:31.998Z,54.2
2022-10-30T09:21:48.244Z,54.5
2022-10-30T09:23:04.472Z,54.6
2022-10-30T09:24:19.743Z,53.9
2022-10-30T09:25:35.964Z,53.6
2022-10-30T09:26:52.216Z,54.9
2022-10-30T09:28:08.443Z,53.5
2022-10-30T09:29:24.685Z,53.4
2022-10-30T09:30:40.928Z,53.1
2022-10-30T09:31:57.154Z,52.6
2022-10-30T09:33:13.400Z,53.1
2022-10-30T09:34:29.635Z,52.9
2022-10-30T09:35:45.880Z,52.2
2022-10-30T09:37:02.122Z,51.4
2022-10-30T09:38:18.354Z,51.4
2022-10-30T09:39:34.588Z,52.1
2022-10-30T09:40:49.854Z,51.7
2022-10-30T09:42:06.099Z,49.8
2022-10-30T09:43:22.325Z,50.4
2022-10-30T09:44:38.566Z,49.8
2022-10-30T09:45:54.816Z,50.3
2022-10-30T09:47:11.036Z,50.6
2022-10-30T09:48:27.273Z,49.5
2022-10-30T09:49:43.516Z,49.5
2022-10-30T09:50:59.753Z,50.1
2022-10-30T09:52:15.992Z,49.4
2022-10-30T09:53:32.244Z,49.1
2022-10-30T09:54:48.468Z,48.3
2022-10-30T09:56:04.724Z,48.2
2022-10-30T09:57:19.965Z,48.8
2022-10-30T09:58:36.207Z,47.4
2022-10-30T09:59:52.442Z,47.7
2022-10-30T10:01:08.675Z,46.8
2022-10-30T10:02:24.925Z,46.2
2022-10-30T10:03:41.155Z,46.7
2022-10-30T10:04:57.395Z,46.9
2022-10-30T10:06:13.631Z,48
2022-10-30T10:07:29.881Z,48
2022-10-30T10:08:46.108Z,48.1
2022-10-30T10:10:02.353Z,47.2
2022-10-30T10:11:18.591Z,47
2022-10-30T10:12:34.831Z,47.1
2022-10-30T10:13:50.095Z,48.3
2022-10-30T10:15:06.330Z,47.4
2022-10-30T10:16:22.562Z,47.3
2022-10-30T10:17:38.809Z,47.9
2022-10-30T10:18:55.036Z,46.8
2022-10-30T10:20:11.271Z,47.6
2022-10-30T10:21:27.517Z,46.6
2022-10-30T10:22:43.761Z,47.3
2022-10-30T10:23:59.991Z,48.3
2022-10-30T10:25:16.226Z,47.5
2022-10-30T10:26:32.472Z,47.3
2022-10-30T10:27:48.720Z,47.2
2022-10-30T10:29:04.956Z,46
2022-10-30T10:30:20.202Z,45.7
2022-10-30T10:31:36.440Z,46
2022-10-30T10:32:52.680Z,46.1
2022-10-30T10:34:08.922Z,45.4
2022-10-30T10:35:25.156Z,45.4
2022-10-30T10:36:41.395Z,45.7
2022-10-30T10:37:57.632Z,46.2
2022-10-30T10:39:13.883Z,46.1
2022-10-30T10:40:30.106Z,46.3
2022-10-30T10:41:46.345Z,47.3
2022-10-30T10:43:02.583Z,46.9
2022-10-30T10:44:18.834Z,46.8
2022-10-30T10:45:35.070Z,46.6
2022-10-30T10:46:50.337Z,45.4
2022-10-30T10:48:06.566Z,45.4
2022-10-30T10:49:22.804Z,45.4
2022-10-30T10:50:39.049Z,45.8
2022-10-30T10:51:55.275Z,45.8
2022-10-30T10:53:11.513Z,46.1
2022-10-30T10:54:27.761Z,45.2
2022-10-30T10:55:44.002Z,44.8
2022-10-30T10:57:00.228Z,45.9
2022-10-30T10:58:16.475Z,46.2
2022-10-30T10:59:32.709Z,45.8
2022-10-30T11:00:48.956Z,46.7
2022-10-30T11:02:05.196Z,45
2022-10-30T11:03:20.456Z,45.9
2022-10-30T11:04:36.679Z,45.4
2022-10-30T11:05:52.921Z,46.3
2022-10-30T11:07:09.173Z,45.1
2022-10-30T11:08:25.406Z,45.6
2022-10-30T11:09:41.639Z,44.8
2022-10-30T11:10:57.881Z,45.1
2022-10-30T11:12:14.114Z,45.6
2022-10-30T11:13:30.372Z,45.7
2022-10-30T11:14:46.603Z,45
2022-10-30T11:16:02.848Z,46.3
2022-10-30T11:17:19.079Z,45.8
2022-10-30T11:18:35.328Z,45
2022-10-30T11:19:50.567Z,45.3
2022-10-30T11:21:06.812Z,45.4
2022-10-30T11:22:23.045Z,44.8
2022-10-30T11:23:39.290Z,44.9
2022-10-30T11:24:55.523Z,45.6
2022-10-30T11:26:11.763Z,44.5
2022-10-30T11:27:28.011Z,44.9
2022-10-30T11:28:44.250Z,44.9
2022-10-30T11:30:00.496Z,44.9
2022-10-30T11:31:16.718Z,43.8
2022-10-30T11:32:32.959Z,44.7
2022-10-30T11:33:49.205Z,44.8
2022-10-30T11:35:05.437Z,44.8
2022-10-30T11:36:20.694Z,43.3
2022-10-30T11:37:36.937Z,43.8
2022-10-30T11:38:53.176Z,44
2022-10-30T11:40:09.411Z,43
2022-10-30T11:41:25.663Z,42.9
2022-10-30T11:42:41.904Z,42.5
2022-10-30T11:43:58.130Z,42.5
2022-10-30T11:45:14.381Z,42.4
2022-10-30T11:46:30.617Z,42.4
2022-10-30T11:47:46.850Z,41.7
2022-10-30T11:49:03.090Z,41.7
2022-10-30T11:50:19.323Z,41
2022-10-30T11:51:35.560Z,40.8
2022-10-30T11:52:50.830Z,41.2
2022-10-30T11:54:07.059Z,43.9
2022-10-30T11:55:23.292Z,40.7
2022-10-30T11:56:39.536Z,41.4
2022-10-30T11:57:55.771Z,41.6
2022-10-30T11:59:12.015Z,42.9
2022-10-30T12:00:28.248Z,44.3
2022-10-30T12:01:44.498Z,43
2022-10-30T12:03:00.742Z,42.2
2022-10-30T12:04:16.975Z,43.1
2022-10-30T12:05:33.213Z,43.2
2022-10-30T12:06:49.457Z,43.8
2022-10-30T12:08:05.701Z,43.8
2022-10-30T12:09:20.939Z,43.4
2022-10-30T12:10:37.183Z,43.8
2022-10-30T12:11:53.430Z,44.4
2022-10-30T12:13:09.669Z,44.4
2022-10-30T12:14:25.911Z,45.6
2022-10-30T12:15:42.141Z,44.1
2022-10-30T12:16:57.399Z,45
2022-10-30T12:18:13.642Z,43.8
2022-10-30T12:19:29.881Z,43.5
2022-10-30T12:20:46.129Z,44.1
2022-10-30T12:22:02.369Z,44.4
2022-10-30T12:23:18.596Z,45.5
2022-10-30T12:24:34.840Z,43.8
2022-10-30T12:25:51.077Z,44.3
2022-10-30T12:27:07.318Z,43.6
2022-10-30T12:28:23.561Z,44.2
2022-10-30T12:29:39.785Z,44.2
2022-10-30T12:30:56.024Z,44.8
2022-10-30T12:32:12.278Z,44.9
2022-10-30T12:33:27.523Z,45
2022-10-30T12:34:43.769Z,44.3
2022-10-30T12:36:00.002Z,45.1
2022-10-30T12:37:16.246Z,44.2
2022-10-30T12:38:32.487Z,44.3
2022-10-30T12:39:48.719Z,44.4
2022-10-30T12:41:04.954Z,44.4
2022-10-30T12:42:21.207Z,47.1
2022-10-30T12:43:37.439Z,45.9
2022-10-30T12:44:53.676Z,46.5
2022-10-30T12:46:09.927Z,47
2022-10-30T12:47:26.150Z,46.5
2022-10-30T12:48:42.393Z,46
2022-10-30T12:49:57.655Z,46.1
2022-10-30T12:51:13.877Z,46.7
2022-10-30T12:52:30.124Z,47.4
2022-10-30T12:53:46.355Z,46.8
2022-10-30T12:55:02.596Z,47
2022-10-30T12:56:18.848Z,47.8
2022-10-30T12:57:35.082Z,46.8
2022-10-30T12:58:51.318Z,47.2
2022-10-30T13:00:07.555Z,48.8
2022-10-30T13:01:23.798Z,47.4
2022-10-30T13:02:40.028Z,46.9
2022-10-30T13:03:56.272Z,46.7
2022-10-30T13:05:12.507Z,45.8
2022-10-30T13:06:27.760Z,47.3
2022-10-30T13:07:44.005Z,47
2022-10-30T13:09:00.240Z,47.2
2022-10-30T13:11:32.732Z,49.1
2022-10-30T13:12:48.957Z,47.8
2022-10-30T13:14:05.194Z,48.9
2022-10-30T13:15:21.432Z,47.5
2022-10-30T13:16:37.684Z,49.5
2022-10-30T13:17:53.925Z,47.4
2022-10-30T13:19:10.146Z,47.4
2022-10-30T13:20:26.388Z,48.8
2022-10-30T13:21:42.637Z,47.8
2022-10-30T13:22:57.887Z,47.8
2022-10-30T13:24:14.118Z,48.6
2022-10-30T13:25:30.363Z,47
2022-10-30T13:26:46.606Z,47.4
2022-10-30T13:28:02.833Z,46.6
2022-10-30T13:29:19.081Z,47.3
2022-10-30T13:30:35.309Z,46.7
2022-10-30T13:31:51.549Z,46.8
2022-10-30T13:33:07.789Z,47.5
2022-10-30T13:34:24.028Z,47.9
2022-10-30T13:35:40.274Z,47.7
2022-10-30T13:36:56.519Z,48.2
2022-10-30T13:38:12.743Z,47.5
2022-10-30T13:39:28.010Z,47.5
2022-10-30T13:40:44.245Z,49.3
2022-10-30T13:42:00.487Z,50.3
2022-10-30T13:43:16.717Z,49.3
2022-10-30T13:44:32.954Z,49.9
2022-10-30T13:45:49.204Z,49.7
2022-10-30T13:47:05.440Z,48.6
2022-10-30T13:48:21.685Z,48.9
2022-10-30T13:49:37.923Z,49.7
2022-10-30T13:50:54.161Z,49.2
2022-10-30T13:52:10.381Z,50.7
2022-10-30T13:53:26.624Z,50.4
2022-10-30T13:54:42.863Z,50
2022-10-30T13:55:59.239Z,51.3
2022-10-30T13:57:15.457Z,50.8
2022-10-30T13:58:31.715Z,50.6
2022-10-30T13:59:47.935Z,51.5
2022-10-30T14:01:04.194Z,50.6
2022-10-30T14:02:20.420Z,51.7
2022-10-30T14:03:36.654Z,51.3
2022-10-30T14:04:52.898Z,49.9
2022-10-30T14:06:09.143Z,50
2022-10-30T14:07:25.365Z,50.9
2022-10-30T14:08:41.620Z,51.5
2022-10-30T14:09:57.857Z,51.9
2022-10-30T14:11:14.091Z,51
2022-10-30T14:12:29.343Z,51.7
2022-10-30T14:13:45.589Z,51.3
2022-10-30T14:15:01.831Z,52.6
2022-10-30T14:16:18.065Z,53.5
2022-10-30T14:17:34.296Z,53.5
2022-10-30T14:18:50.547Z,54.2
2022-10-30T14:20:06.785Z,55.5
2022-10-30T14:21:23.011Z,56
2022-10-30T14:22:39.251Z,55
2022-10-30T14:23:55.502Z,55.6
2022-10-30T14:25:11.736Z,53.7
2022-10-30T14:26:27.977Z,56.1
2022-10-30T14:27:44.197Z,56.4
2022-10-30T14:28:59.453Z,53.4
2022-10-30T14:30:15.696Z,54.3
2022-10-30T14:31:31.933Z,56.7
2022-10-30T14:32:48.169Z,56.3
2022-10-30T14:34:04.422Z,53.9
2022-10-30T14:35:20.661Z,54.5
2022-10-30T14:36:36.885Z,55
2022-10-30T14:37:53.126Z,55
2022-10-30T14:39:09.000Z,55.9
2022-10-30T14:41:41.857Z,55.3
2022-10-30T14:42:58.080Z,56.9
2022-10-30T14:44:14.319Z,57.5
2022-10-30T14:45:29.574Z,58.5
2022-10-30T14:46:45.827Z,59.2
2022-10-30T14:48:02.047Z,60.7
2022-10-30T14:49:18.288Z,60.1
2022-10-30T14:50:34.542Z,60.8
2022-10-30T14:51:50.763Z,61.4
2022-10-30T14:53:07.000Z,62.7
2022-10-30T14:54:23.250Z,63.1
2022-10-30T14:55:39.475Z,63.2
2022-10-30T14:56:55.731Z,63.8
2022-10-30T14:58:11.970Z,63.7
2022-10-30T14:59:28.198Z,64.3
2022-10-30T15:00:44.449Z,64.3
2022-10-30T15:01:59.694Z,64.8
2022-10-30T15:03:15.936Z,66.2
2022-10-30T15:04:32.171Z,66.6
2022-10-30T15:05:48.411Z,66.7
2022-10-30T15:07:04.646Z,66.8
2022-10-30T15:08:20.884Z,69
2022-10-30T15:09:37.126Z,68.3
2022-10-30T15:10:53.358Z,68.1
2022-10-30T15:12:09.593Z,70
2022-10-30T15:13:25.840Z,70.7
2022-10-30T15:14:42.070Z,71.4
2022-10-30T15:15:58.316Z,71.9
2022-10-30T15:17:14.567Z,72.3
2022-10-30T15:18:29.804Z,71.8
2022-10-30T15:19:46.059Z,71.8
2022-10-30T15:21:02.293Z,73.2
2022-10-30T15:22:18.532Z,72.7
2022-10-30T15:23:34.762Z,74.1
2022-10-30T15:24:51.016Z,74.5
2022-10-30T15:26:07.255Z,74.3
2022-10-30T15:27:23.488Z,75.2
2022-10-30T15:28:39.733Z,75.3
2022-10-30T15:29:55.954Z,75.8
2022-10-30T15:31:12.200Z,76
2022-10-30T15:32:28.444Z,76.2
2022-10-30T15:33:44.676Z,76.5
2022-10-30T15:34:59.943Z,77
2022-10-30T15:36:16.167Z,77.1
2022-10-30T15:37:32.415Z,77.1
2022-10-30T15:38:48.651Z,77.1
2022-10-30T15:40:04.878Z,77.8
2022-10-30T15:41:21.117Z,78
2022-10-30T15:42:37.365Z,78.6
2022-10-30T15:43:53.598Z,78.9
2022-10-30T15:45:09.834Z,78.9
2022-10-30T15:46:26.077Z,79.5
2022-10-30T15:47:42.324Z,79.8
2022-10-30T15:48:58.558Z,79.7
2022-10-30T15:50:14.803Z,80.1
2022-10-30T15:51:30.046Z,80
2022-10-30T15:52:46.300Z,80.2
2022-10-30T15:54:02.523Z,80.7
2022-10-30T15:55:18.777Z,80.9
2022-10-30T15:56:35.016Z,81.3
2022-10-30T15:57:51.239Z,82.2
2022-10-30T15:59:07.492Z,82.4
2022-10-30T16:00:23.720Z,82.5
2022-10-30T16:01:39.966Z,82.7
2022-10-30T16:02:56.191Z,82.9
2022-10-30T16:04:12.435Z,83.4
2022-10-30T16:05:28.672Z,83.7
2022-10-30T16:06:44.922Z,83.9
2022-10-30T16:08:00.162Z,84
2022-10-30T16:09:16.408Z,84.2
2022-10-30T16:10:32.645Z,84.4
2022-10-30T16:11:48.895Z,84.5
2022-10-30T16:13:05.121Z,84.8
2022-10-30T16:14:21.371Z,84.8
2022-10-30T16:15:37.595Z,84.9
2022-10-30T16:16:53.846Z,84.5
2022-10-30T16:18:10.087Z,84.2
2022-10-30T16:19:26.322Z,84.1
2022-10-30T16:20:42.545Z,84.4
2022-10-30T16:21:58.842Z,84.3
2022-10-30T16:23:15.136Z,84.3
2022-10-30T16:24:30.451Z,84.6
2022-10-30T16:25:46.732Z,85
2022-10-30T16:27:03.029Z,85.6
2022-10-30T16:28:19.322Z,86
2022-10-30T16:29:35.617Z,86.2
2022-10-30T16:30:51.917Z,86.7
2022-10-30T16:32:07.232Z,86.6
2022-10-30T16:33:23.523Z,86.7
2022-10-30T16:34:39.811Z,86.5
2022-10-30T16:35:56.104Z,86.5
2022-10-30T16:37:12.387Z,86.6
2022-10-30T16:38:28.699Z,87.1
2022-10-30T16:39:44.991Z,87.4
2022-10-30T16:41:01.286Z,87.7
2022-10-30T16:42:17.562Z,87.1
2022-10-30T16:43:33.861Z,86.9
2022-10-30T16:44:50.162Z,87
2022-10-30T16:46:06.444Z,87
2022-10-30T16:47:22.748Z,87.3
2022-10-30T16:48:38.046Z,87.9
2022-10-30T16:49:54.335Z,88.3
2022-10-30T16:51:10.635Z,88.2
2022-10-30T16:52:26.921Z,88.9
2022-10-30T16:53:43.222Z,88.9
2022-10-30T16:54:59.514Z,89.3
2022-10-30T16:56:15.808Z,89.3
2022-10-30T16:57:32.095Z,89.5
2022-10-30T16:58:48.389Z,89.5
2022-10-30T17:00:04.679Z,89.3
2022-10-30T17:01:20.984Z,89.4
2022-10-30T17:02:37.263Z,89.3
2022-10-30T17:03:53.551Z,89.3
2022-10-30T17:05:08.875Z,88.8
2022-10-30T17:06:25.153Z,89.3
2022-10-30T17:07:41.456Z,89.5
2022-10-30T17:08:57.744Z,89.7
2022-10-30T17:10:14.045Z,89.6